Pendleton, North Carolina
Current Conditions -  °F | °C
As of 2:55 PM on Friday 24 Oct 2014 (Local Time) from KASJ Reporting Station
Clear Clear  
Wind Chill: 67°   Ceiling: Unl
Heat Index: 67°   Visibility: 10mi
Dew Point: 42°   Wind: 3mph
Humidity: 42%   Direction: 350°N
Pressure: 29.95"   Gusts: NA
Location:  36.47°N, 77.2°W
Report Text: KASJ 241855Z AUTO 35003KT 10SM CLR 19/06 A2995 RMK AO2 T01920058
Loading
Personal Weather Stations






























Interactive Weather Map
Tropical Storm Tracking
New forecast layout! Learn more

10-Day Weather Forecast

Advertisements
Track Severe Weather on mobile